Time;durP1;ratioP1;P1;durP2;ratioP2;P2;SDS_P1;SDS_P2;PMS_P1;PMS_P2;Temp;Humidity;BMP_temperature;BMP_pressure;BME280_temperature;BME280_humidity;BME280_pressure;Samples;Min_cycle;Max_cycle;Signal;HPM_P1;HPM_P2
2022/08/07 00:04:44;;;;;;;3.85;1.02;;;;;;;;;;10460374;28;20461;-45
2022/08/07 00:09:45;;;;;;;1.52;0.90;;;;;;;;;;10457419;28;20479;-45
2022/08/07 00:14:45;;;;;;;2.25;0.90;;;;;;;;;;10474698;28;20487;-46
2022/08/07 00:19:46;;;;;;;1.73;0.98;;;;;;;;;;10476570;28;20119;-45
2022/08/07 00:24:47;;;;;;;2.65;0.95;;;;;;;;;;10460086;28;20060;-45
2022/08/07 00:29:47;;;;;;;5.88;1.20;;;;;;;;;;10455884;28;20507;-47
2022/08/07 00:34:48;;;;;;;1.50;0.80;;;;;;;;;;10464939;28;20623;-45
2022/08/07 00:39:49;;;;;;;2.53;0.82;;;;;;;;;;10453708;28;20040;-45
2022/08/07 00:44:49;;;;;;;1.30;1.05;;;;;;;;;;10470729;28;20031;-45
2022/08/07 00:49:50;;;;;;;0.85;0.80;;;;;;;;;;10472052;28;20040;-45
2022/08/07 00:54:51;;;;;;;1.20;0.85;;;;;;;;;;10473474;28;20051;-45
2022/08/07 00:59:52;;;;;;;6.40;0.90;;;;;;;;;;10468353;28;20040;-45
2022/08/07 01:04:53;;;;;;;0.70;0.70;;;;;;;;;;10452328;28;20032;-45
2022/08/07 01:09:54;;;;;;;0.95;0.88;;;;;;;;;;10451397;28;20530;-46
2022/08/07 01:14:58;;;;;;;1.45;0.80;;;;;;;;;;10479024;28;20086;-47
2022/08/07 01:20:08;;;;;;;1.88;0.73;;;;;;;;;;10464256;28;20435;-46
2022/08/07 01:25:11;;;;;;;2.45;0.70;;;;;;;;;;10463565;28;20024;-45
2022/08/07 01:30:12;;;;;;;2.53;1.00;;;;;;;;;;10474996;28;20533;-46
2022/08/07 01:35:12;;;;;;;0.90;0.68;;;;;;;;;;10463523;28;20033;-46
2022/08/07 01:40:18;;;;;;;2.53;0.70;;;;;;;;;;10471560;28;20044;-45
2022/08/07 01:45:20;;;;;;;0.88;0.88;;;;;;;;;;10462018;28;20087;-45
2022/08/07 01:50:21;;;;;;;1.58;0.88;;;;;;;;;;10474878;28;20025;-45
2022/08/07 01:55:36;;;;;;;1.98;0.80;;;;;;;;;;10474845;28;20092;-45
2022/08/07 02:00:39;;;;;;;0.65;0.60;;;;;;;;;;10449915;28;20033;-45
2022/08/07 02:05:50;;;;;;;0.95;0.85;;;;;;;;;;10489242;28;20024;-45
2022/08/07 02:10:53;;;;;;;0.60;0.60;;;;;;;;;;10487795;28;20496;-44
2022/08/07 02:15:55;;;;;;;0.68;0.60;;;;;;;;;;10461765;28;20399;-46
2022/08/07 02:20:59;;;;;;;0.90;0.70;;;;;;;;;;10461213;28;20048;-48
2022/08/07 02:26:02;;;;;;;0.80;0.70;;;;;;;;;;10465885;28;20468;-45
2022/08/07 02:31:05;;;;;;;0.90;0.75;;;;;;;;;;10447744;28;20032;-46
2022/08/07 02:36:07;;;;;;;0.82;0.80;;;;;;;;;;10468085;28;20552;-46
2022/08/07 02:41:09;;;;;;;0.50;0.50;;;;;;;;;;10462191;28;20027;-46
2022/08/07 02:46:11;;;;;;;0.80;0.80;;;;;;;;;;10476138;28;20496;-45
2022/08/07 02:51:17;;;;;;;0.70;0.65;;;;;;;;;;10477325;28;20426;-45
2022/08/07 02:56:20;;;;;;;0.50;0.50;;;;;;;;;;10469289;28;20043;-46
2022/08/07 03:01:24;;;;;;;1.30;0.60;;;;;;;;;;10491170;28;20079;-45
2022/08/07 03:06:26;;;;;;;0.88;0.75;;;;;;;;;;10477963;22;20076;-57
2022/08/07 03:11:28;;;;;;;0.60;0.60;;;;;;;;;;10448240;28;20495;-56
2022/08/07 03:16:34;;;;;;;0.63;0.63;;;;;;;;;;10453270;28;20028;-55
2022/08/07 03:21:35;;;;;;;1.08;0.70;;;;;;;;;;10452752;28;20029;-55
2022/08/07 03:26:37;;;;;;;6.43;0.80;;;;;;;;;;10454067;28;20057;-58
2022/08/07 03:31:40;;;;;;;0.63;0.63;;;;;;;;;;10453127;28;20032;-54
2022/08/07 03:36:41;;;;;;;1.58;0.73;;;;;;;;;;10451586;28;20144;-57
2022/08/07 03:41:42;;;;;;;1.23;0.70;;;;;;;;;;10453469;28;20064;-55
2022/08/07 03:46:43;;;;;;;0.63;0.63;;;;;;;;;;10452583;28;20036;-56
2022/08/07 03:51:44;;;;;;;13.88;1.20;;;;;;;;;;10449612;28;20025;-54
2022/08/07 03:56:45;;;;;;;0.65;0.65;;;;;;;;;;10452754;28;20488;-49
2022/08/07 04:01:46;;;;;;;3.50;0.90;;;;;;;;;;10451979;28;20029;-52
2022/08/07 04:06:47;;;;;;;2.05;1.20;;;;;;;;;;10448285;28;20191;-53
2022/08/07 04:11:50;;;;;;;2.40;1.10;;;;;;;;;;10451143;28;20167;-52
2022/08/07 04:16:51;;;;;;;2.67;1.20;;;;;;;;;;10445989;28;20388;-51
2022/08/07 04:21:52;;;;;;;1.33;1.00;;;;;;;;;;10452311;28;20063;-51
2022/08/07 04:26:53;;;;;;;7.85;1.40;;;;;;;;;;10452179;28;20025;-53
2022/08/07 04:31:55;;;;;;;2.30;1.30;;;;;;;;;;10451328;28;20025;-53
2022/08/07 04:36:56;;;;;;;1.33;1.10;;;;;;;;;;10451066;28;20388;-54
2022/08/07 04:41:56;;;;;;;2.83;1.13;;;;;;;;;;10448278;28;20044;-51
2022/08/07 04:47:26;;;;;;;2.15;1.02;;;;;;;;;;10450273;28;20032;-54
2022/08/07 04:52:45;;;;;;;2.65;1.20;;;;;;;;;;10451978;28;20033;-53
2022/08/07 04:58:13;;;;;;;4.38;1.20;;;;;;;;;;10450860;28;20453;-53
2022/08/07 05:03:39;;;;;;;2.00;1.13;;;;;;;;;;10451365;28;20036;-53
2022/08/07 05:08:54;;;;;;;2.85;1.13;;;;;;;;;;10451370;28;20048;-53
2022/08/07 05:14:07;;;;;;;2.20;1.02;;;;;;;;;;10449606;28;20487;-64
2022/08/07 05:19:16;;;;;;;0.98;0.93;;;;;;;;;;10451025;28;20256;-61
2022/08/07 05:24:19;;;;;;;2.70;1.35;;;;;;;;;;10449265;28;20021;-57
2022/08/07 05:29:22;;;;;;;1.52;1.15;;;;;;;;;;10450687;28;20029;-53
2022/08/07 05:34:24;;;;;;;3.88;1.10;;;;;;;;;;10447501;28;20128;-53
2022/08/07 05:39:25;;;;;;;3.22;1.23;;;;;;;;;;10448855;28;20025;-52
2022/08/07 05:44:27;;;;;;;3.88;1.25;;;;;;;;;;10448914;28;20036;-53
2022/08/07 05:49:28;;;;;;;2.20;1.00;;;;;;;;;;10448777;28;20455;-52
2022/08/07 05:54:29;;;;;;;3.85;2.13;;;;;;;;;;10447957;28;20029;-52
2022/08/07 05:59:32;;;;;;;2.83;1.10;;;;;;;;;;10448970;28;20032;-53
2022/08/07 06:04:40;;;;;;;6.03;0.90;;;;;;;;;;10446685;28;20378;-53
2022/08/07 06:09:41;;;;;;;3.28;1.15;;;;;;;;;;10435284;28;20160;-52
2022/08/07 06:14:42;;;;;;;1.05;0.95;;;;;;;;;;10446675;28;20171;-53
2022/08/07 06:19:44;;;;;;;4.22;1.15;;;;;;;;;;10446771;28;20028;-54
2022/08/07 06:24:45;;;;;;;1.30;1.17;;;;;;;;;;10447006;28;20021;-53
2022/08/07 06:29:46;;;;;;;1.38;1.20;;;;;;;;;;10434339;28;20541;-53
2022/08/07 06:34:47;;;;;;;1.55;1.00;;;;;;;;;;10434657;28;20173;-53
2022/08/07 06:39:47;;;;;;;2.78;1.10;;;;;;;;;;10447391;28;20025;-56
2022/08/07 06:44:50;;;;;;;1.38;1.27;;;;;;;;;;10447080;28;20044;-54
2022/08/07 06:49:50;;;;;;;1.55;0.88;;;;;;;;;;10448353;28;20120;-53
2022/08/07 06:54:51;;;;;;;1.23;1.13;;;;;;;;;;10444511;28;20157;-53
2022/08/07 06:59:54;;;;;;;1.27;1.17;;;;;;;;;;10446185;28;20453;-54
2022/08/07 07:04:55;;;;;;;1.48;1.30;;;;;;;;;;10446862;28;20041;-52
2022/08/07 07:09:56;;;;;;;4.95;1.33;;;;;;;;;;10432038;28;20388;-55
2022/08/07 07:15:12;;;;;;;5.95;1.60;;;;;;;;;;10446656;28;20056;-52
2022/08/07 07:20:19;;;;;;;5.55;1.55;;;;;;;;;;10446669;28;20021;-54
2022/08/07 07:25:20;;;;;;;2.90;1.05;;;;;;;;;;10446320;28;20499;-53
2022/08/07 07:30:31;;;;;;;2.75;1.60;;;;;;;;;;10449468;28;20112;-52
2022/08/07 07:35:34;;;;;;;5.10;1.40;;;;;;;;;;10452328;28;20040;-55
2022/08/07 07:40:36;;;;;;;6.20;1.50;;;;;;;;;;10454524;28;20028;-53
2022/08/07 07:45:39;;;;;;;4.05;1.30;;;;;;;;;;10442910;28;20029;-53
2022/08/07 07:50:40;;;;;;;4.47;1.48;;;;;;;;;;10454049;28;20443;-53
2022/08/07 07:55:41;;;;;;;1.48;1.20;;;;;;;;;;10452431;28;20508;-53
2022/08/07 08:00:44;;;;;;;4.60;1.20;;;;;;;;;;10452871;28;20028;-60
2022/08/07 08:05:45;;;;;;;4.55;1.00;;;;;;;;;;10452356;28;20475;-52
2022/08/07 08:10:46;;;;;;;1.83;1.05;;;;;;;;;;10452459;28;20029;-51
2022/08/07 08:15:48;;;;;;;2.30;1.10;;;;;;;;;;10451874;28;20041;-59
2022/08/07 08:20:49;;;;;;;1.90;1.10;;;;;;;;;;10453307;28;20037;-50
2022/08/07 08:31:19;;;;;;;1.45;1.08;;;;;;;;;;10451535;28;20028;-54
2022/08/07 08:36:25;;;;;;;1.60;0.93;;;;;;;;;;10452389;28;20335;-53
2022/08/07 08:41:48;;;;;;;2.45;1.00;;;;;;;;;;10451002;28;20152;-54
2022/08/07 08:47:32;;;;;;;1.23;1.10;;;;;;;;;;10450908;28;20029;-52
2022/08/07 08:52:39;;;;;;;2.65;1.25;;;;;;;;;;10450442;28;20064;-53
2022/08/07 08:58:04;;;;;;;4.95;1.35;;;;;;;;;;10436192;28;20031;-53
2022/08/07 09:03:33;;;;;;;1.08;0.90;;;;;;;;;;10449841;28;20049;-53
2022/08/07 09:08:48;;;;;;;5.45;1.02;;;;;;;;;;10451195;28;20431;-54
2022/08/07 09:14:01;;;;;;;1.00;0.90;;;;;;;;;;10450845;28;20025;-53
2022/08/07 09:19:31;;;;;;;1.00;1.00;;;;;;;;;;10449783;28;20025;-51
2022/08/07 09:24:50;;;;;;;0.95;0.95;;;;;;;;;;10448444;28;20051;-53
2022/08/07 09:29:51;;;;;;;1.55;1.00;;;;;;;;;;10445693;28;20021;-54
2022/08/07 09:35:24;;;;;;;1.23;1.10;;;;;;;;;;10442140;28;20029;-53
2022/08/07 09:40:54;;;;;;;0.82;0.82;;;;;;;;;;10450244;28;20480;-52
2022/08/07 09:46:19;;;;;;;1.55;1.10;;;;;;;;;;10449696;28;20519;-53
2022/08/07 09:52:12;;;;;;;1.52;1.25;;;;;;;;;;10436328;28;20017;-52
2022/08/07 09:58:00;;;;;;;1.15;1.05;;;;;;;;;;10449210;28;20037;-52
2022/08/07 10:03:33;;;;;;;1.23;1.13;;;;;;;;;;10445850;28;20029;-50
2022/08/07 10:08:43;;;;;;;1.45;1.20;;;;;;;;;;10448054;28;20056;-52
2022/08/07 10:14:15;;;;;;;1.98;1.10;;;;;;;;;;10448913;28;20028;-53
2022/08/07 10:19:42;;;;;;;0.90;0.90;;;;;;;;;;10448827;28;20048;-53
2022/08/07 10:25:27;;;;;;;0.98;0.98;;;;;;;;;;10447388;28;20029;-51
2022/08/07 10:30:57;;;;;;;1.27;1.00;;;;;;;;;;10448658;28;20021;-53
2022/08/07 10:36:37;;;;;;;3.63;1.10;;;;;;;;;;10448375;28;20028;-51
2022/08/07 10:41:47;;;;;;;1.80;1.20;;;;;;;;;;10449205;28;20108;-54
2022/08/07 10:47:20;;;;;;;1.00;0.90;;;;;;;;;;10447689;28;20114;-52
2022/08/07 10:52:37;;;;;;;1.20;1.10;;;;;;;;;;10423384;28;20065;-53
2022/08/07 10:58:19;;;;;;;1.05;1.00;;;;;;;;;;10447678;28;20033;-51
2022/08/07 11:03:44;;;;;;;1.30;1.15;;;;;;;;;;10449101;28;20461;-54
2022/08/07 11:08:55;;;;;;;0.98;0.98;;;;;;;;;;10440803;28;20508;-53
2022/08/07 11:14:11;;;;;;;1.17;1.08;;;;;;;;;;10455768;28;20032;-50
2022/08/07 11:19:29;;;;;;;1.20;1.10;;;;;;;;;;10454904;28;20031;-56
2022/08/07 11:24:39;;;;;;;1.17;1.08;;;;;;;;;;10455100;28;20098;-53
2022/08/07 11:29:59;;;;;;;1.10;1.00;;;;;;;;;;10455501;28;20028;-54
2022/08/07 11:35:23;;;;;;;2.97;0.82;;;;;;;;;;10451700;28;20081;-51
2022/08/07 11:40:55;;;;;;;1.00;0.90;;;;;;;;;;10455229;28;20060;-53
2022/08/07 11:46:20;;;;;;;1.08;0.98;;;;;;;;;;10453275;28;20426;-51
2022/08/07 11:51:34;;;;;;;1.35;1.02;;;;;;;;;;10454834;28;20025;-50
2022/08/07 11:56:58;;;;;;;1.02;1.00;;;;;;;;;;10454830;28;20024;-54
2022/08/07 12:02:25;;;;;;;1.30;0.98;;;;;;;;;;10453907;28;20052;-51
2022/08/07 12:07:59;;;;;;;1.83;1.10;;;;;;;;;;10453348;28;20041;-52
2022/08/07 12:13:11;;;;;;;1.70;1.00;;;;;;;;;;10452596;28;20164;-54
2022/08/07 12:18:36;;;;;;;2.00;0.90;;;;;;;;;;10452896;28;20075;-54
2022/08/07 12:24:17;;;;;;;1.02;0.90;;;;;;;;;;10453034;28;20029;-53
2022/08/07 12:29:46;;;;;;;0.73;0.73;;;;;;;;;;10422349;28;20067;-53
2022/08/07 12:34:48;;;;;;;1.48;1.23;;;;;;;;;;10449419;28;20025;-53
2022/08/07 12:39:51;;;;;;;1.10;1.00;;;;;;;;;;10451437;28;20075;-53
2022/08/07 12:44:53;;;;;;;1.35;1.13;;;;;;;;;;10451407;28;20032;-54
2022/08/07 12:50:16;;;;;;;0.82;0.82;;;;;;;;;;10451682;28;20530;-54
2022/08/07 12:55:30;;;;;;;0.85;0.85;;;;;;;;;;10451128;28;20033;-54
2022/08/07 13:01:21;;;;;;;1.10;1.10;;;;;;;;;;10437981;28;20021;-53
2022/08/07 13:06:51;;;;;;;0.90;0.90;;;;;;;;;;10435033;28;20045;-59
2022/08/07 13:12:17;;;;;;;0.90;0.90;;;;;;;;;;10451114;28;20530;-54
2022/08/07 13:18:08;;;;;;;0.95;0.95;;;;;;;;;;10438866;28;20036;-51
2022/08/07 13:23:50;;;;;;;0.75;0.75;;;;;;;;;;10451010;28;20025;-53
2022/08/07 13:29:05;;;;;;;1.00;1.00;;;;;;;;;;10441566;28;20043;-52
2022/08/07 13:34:32;;;;;;;1.02;0.93;;;;;;;;;;10449154;28;20027;-53
2022/08/07 13:39:46;;;;;;;0.98;0.82;;;;;;;;;;10409588;28;20043;-53
2022/08/07 13:44:49;;;;;;;1.02;0.90;;;;;;;;;;10436858;28;20025;-52
2022/08/07 13:49:52;;;;;;;1.42;0.98;;;;;;;;;;10449923;28;20036;-54
2022/08/07 13:54:56;;;;;;;1.35;1.10;;;;;;;;;;10449895;28;20033;-51
2022/08/07 13:59:58;;;;;;;1.63;1.13;;;;;;;;;;10448755;28;20098;-54
2022/08/07 14:05:06;;;;;;;1.13;1.02;;;;;;;;;;10447906;28;20048;-53
2022/08/07 14:10:08;;;;;;;1.52;1.10;;;;;;;;;;10449037;28;20556;-52
2022/08/07 14:15:26;;;;;;;0.80;0.80;;;;;;;;;;10433936;28;20033;-54
2022/08/07 14:20:29;;;;;;;0.88;0.88;;;;;;;;;;10449337;28;20439;-54
2022/08/07 14:25:32;;;;;;;1.20;1.10;;;;;;;;;;10447704;28;20021;-53
2022/08/07 14:30:36;;;;;;;1.17;1.10;;;;;;;;;;10447433;28;20065;-52
2022/08/07 14:35:37;;;;;;;0.90;0.90;;;;;;;;;;10445032;28;20037;-54
2022/08/07 14:40:41;;;;;;;0.88;0.88;;;;;;;;;;10451865;28;20067;-53
2022/08/07 14:45:46;;;;;;;0.88;0.88;;;;;;;;;;10455685;28;20079;-52
2022/08/07 14:50:54;;;;;;;0.98;0.95;;;;;;;;;;10456365;28;20025;-53
2022/08/07 14:55:56;;;;;;;1.08;1.05;;;;;;;;;;10456124;28;20469;-53
2022/08/07 15:00:58;;;;;;;1.17;1.08;;;;;;;;;;10456522;28;20464;-52
2022/08/07 15:06:00;;;;;;;1.10;1.00;;;;;;;;;;10454056;28;20068;-51
2022/08/07 15:11:07;;;;;;;0.77;0.77;;;;;;;;;;10451225;28;20025;-51
2022/08/07 15:16:10;;;;;;;1.00;1.00;;;;;;;;;;10454748;28;20032;-53
2022/08/07 15:21:27;;;;;;;1.15;1.05;;;;;;;;;;10455458;28;20517;-52
2022/08/07 15:26:43;;;;;;;0.97;0.93;;;;;;;;;;10454273;28;20029;-53
2022/08/07 15:31:48;;;;;;;1.20;1.10;;;;;;;;;;10452979;28;20052;-53
2022/08/07 15:36:49;;;;;;;1.00;0.93;;;;;;;;;;10454853;28;20388;-51
2022/08/07 15:42:01;;;;;;;0.90;0.90;;;;;;;;;;10455042;28;20028;-53
2022/08/07 15:47:05;;;;;;;1.20;1.10;;;;;;;;;;10454601;28;20063;-51
2022/08/07 15:52:09;;;;;;;0.98;0.90;;;;;;;;;;10452395;28;20027;-53
2022/08/07 15:57:18;;;;;;;1.10;1.00;;;;;;;;;;10452546;28;20037;-51
2022/08/07 16:02:28;;;;;;;1.05;0.98;;;;;;;;;;10453089;28;20064;-53
2022/08/07 16:07:43;;;;;;;0.80;0.80;;;;;;;;;;10453123;28;20120;-51
2022/08/07 16:13:25;;;;;;;0.90;0.90;;;;;;;;;;10441365;28;20013;-53
2022/08/07 16:19:16;;;;;;;1.00;1.00;;;;;;;;;;10408046;28;20078;-52
2022/08/07 16:24:46;;;;;;;1.52;1.00;;;;;;;;;;10446868;28;20029;-52
2022/08/07 16:30:08;;;;;;;1.35;1.20;;;;;;;;;;10453130;28;20476;-53
2022/08/07 16:35:22;;;;;;;1.20;1.10;;;;;;;;;;10451843;28;20017;-53
2022/08/07 16:40:47;;;;;;;0.95;0.95;;;;;;;;;;10453123;28;20484;-53
2022/08/07 16:46:14;;;;;;;1.48;0.80;;;;;;;;;;10452307;28;20472;-54
2022/08/07 16:51:31;;;;;;;;;;;;;;;;;;10449827;28;20033;-53
2022/08/07 16:56:52;;;;;;;1.10;1.00;;;;;;;;;;10445295;28;19912;-54
2022/08/07 17:02:00;;;;;;;1.13;1.00;;;;;;;;;;10451108;28;20035;-53
2022/08/07 17:07:15;;;;;;;1.38;1.02;;;;;;;;;;10450066;28;20161;-54
2022/08/07 17:12:33;;;;;;;1.60;0.90;;;;;;;;;;10451223;28;20418;-53
2022/08/07 17:18:03;;;;;;;3.25;1.02;;;;;;;;;;10451563;28;20036;-53
2022/08/07 17:23:43;;;;;;;0.90;0.90;;;;;;;;;;10424693;28;20127;-53
2022/08/07 17:29:11;;;;;;;1.10;1.00;;;;;;;;;;10449902;28;20494;-53
2022/08/07 17:34:30;;;;;;;1.00;0.90;;;;;;;;;;10449253;28;20029;-54
2022/08/07 17:40:09;;;;;;;1.00;1.00;;;;;;;;;;10436836;28;20021;-54
2022/08/07 17:45:20;;;;;;;1.00;1.00;;;;;;;;;;10450386;28;20028;-53
2022/08/07 17:50:59;;;;;;;0.88;0.88;;;;;;;;;;10448937;28;20384;-53
2022/08/07 17:56:22;;;;;;;1.00;1.00;;;;;;;;;;10449741;28;20021;-52
2022/08/07 18:01:34;;;;;;;0.90;0.90;;;;;;;;;;10448521;28;20025;-53
2022/08/07 18:06:46;;;;;;;1.15;1.00;;;;;;;;;;10449143;28;20043;-54
2022/08/07 18:11:53;;;;;;;1.20;1.10;;;;;;;;;;10448153;28;20469;-51
2022/08/07 18:17:06;;;;;;;0.90;0.90;;;;;;;;;;10448722;28;20033;-53
2022/08/07 18:22:22;;;;;;;0.80;0.80;;;;;;;;;;10449933;28;20035;-53
2022/08/07 18:27:54;;;;;;;1.43;0.80;;;;;;;;;;10449000;28;20256;-53
2022/08/07 18:33:14;;;;;;;0.80;0.80;;;;;;;;;;10443656;28;20086;-53
2022/08/07 18:38:36;;;;;;;1.23;1.10;;;;;;;;;;10448772;28;20028;-52
2022/08/07 18:44:17;;;;;;;0.80;0.80;;;;;;;;;;10447442;28;20520;-52
2022/08/07 18:49:40;;;;;;;1.45;0.90;;;;;;;;;;10448595;28;20506;-52
2022/08/07 18:55:28;;;;;;;1.05;0.95;;;;;;;;;;10447935;28;20017;-54
2022/08/07 19:01:08;;;;;;;1.00;1.00;;;;;;;;;;10435522;28;20029;-59
2022/08/07 19:06:19;;;;;;;1.13;1.08;;;;;;;;;;10433394;28;20048;-53
2022/08/07 19:11:40;;;;;;;1.00;1.00;;;;;;;;;;10446687;28;20112;-54
2022/08/07 19:16:55;;;;;;;0.93;0.93;;;;;;;;;;10441329;28;20491;-49
2022/08/07 19:22:05;;;;;;;0.77;0.77;;;;;;;;;;10439500;28;20036;-52
2022/08/07 19:27:11;;;;;;;1.00;1.00;;;;;;;;;;10450775;28;20298;-51
2022/08/07 19:32:16;;;;;;;2.53;0.90;;;;;;;;;;10451196;28;20472;-52
2022/08/07 19:37:21;;;;;;;1.00;0.90;;;;;;;;;;10453873;28;20036;-53
2022/08/07 19:42:23;;;;;;;1.23;0.98;;;;;;;;;;10454847;28;20119;-53
2022/08/07 19:47:32;;;;;;;0.90;0.90;;;;;;;;;;10445215;28;20643;-53
2022/08/07 19:52:33;;;;;;;0.98;0.98;;;;;;;;;;10453229;28;20025;-53
2022/08/07 19:57:43;;;;;;;1.92;1.08;;;;;;;;;;10454326;28;20029;-52
2022/08/07 20:03:04;;;;;;;1.10;1.00;;;;;;;;;;10415570;28;20033;-54
2022/08/07 20:08:12;;;;;;;1.30;1.13;;;;;;;;;;10415404;28;20045;-54
2022/08/07 20:13:29;;;;;;;1.20;1.10;;;;;;;;;;10418945;28;20056;-53
2022/08/07 20:18:32;;;;;;;5.97;1.07;;;;;;;;;;10436727;28;20028;-55
2022/08/07 20:23:34;;;;;;;1.48;1.13;;;;;;;;;;10451341;28;20025;-54
2022/08/07 20:28:36;;;;;;;1.45;1.02;;;;;;;;;;10452577;28;20106;-53
2022/08/07 20:33:40;;;;;;;1.42;1.08;;;;;;;;;;10450089;28;20029;-53
2022/08/07 20:38:43;;;;;;;2.70;1.55;;;;;;;;;;10449880;28;20043;-50
2022/08/07 20:43:44;;;;;;;0.90;0.90;;;;;;;;;;10450372;28;20108;-53
2022/08/07 20:48:50;;;;;;;2.78;1.30;;;;;;;;;;10451267;28;20021;-53
2022/08/07 20:53:52;;;;;;;2.20;1.20;;;;;;;;;;10442681;28;20035;-50
2022/08/07 20:58:57;;;;;;;2.15;1.30;;;;;;;;;;10449571;28;20040;-53
2022/08/07 21:04:00;;;;;;;1.20;1.10;;;;;;;;;;10427268;28;20025;-50
2022/08/07 21:09:10;;;;;;;2.50;1.40;;;;;;;;;;10415673;28;20031;-52
2022/08/07 21:14:26;;;;;;;5.05;1.42;;;;;;;;;;10438152;28;20029;-54
2022/08/07 21:19:29;;;;;;;1.80;1.25;;;;;;;;;;10449313;28;20043;-55
2022/08/07 21:24:53;;;;;;;2.45;1.45;;;;;;;;;;10448462;28;20134;-53
2022/08/07 21:30:09;;;;;;;1.10;1.00;;;;;;;;;;10449760;28;20416;-55
2022/08/07 21:35:30;;;;;;;5.03;1.45;;;;;;;;;;10448279;28;20056;-54
2022/08/07 21:40:53;;;;;;;1.45;1.20;;;;;;;;;;10446262;28;20025;-53
2022/08/07 21:46:15;;;;;;;1.70;1.02;;;;;;;;;;10448167;28;20496;-53
2022/08/07 21:51:28;;;;;;;1.55;1.10;;;;;;;;;;10447102;28;20048;-52
2022/08/07 21:56:37;;;;;;;2.95;1.08;;;;;;;;;;10448753;28;20387;-53
2022/08/07 22:01:55;;;;;;;2.38;1.30;;;;;;;;;;10439425;28;20045;-53
2022/08/07 22:07:13;;;;;;;1.88;0.90;;;;;;;;;;10443745;28;20037;-53
2022/08/07 22:12:20;;;;;;;1.25;1.00;;;;;;;;;;10442338;28;20029;-56
2022/08/07 22:17:25;;;;;;;4.53;1.20;;;;;;;;;;10446801;28;20031;-54
2022/08/07 22:22:55;;;;;;;2.22;1.10;;;;;;;;;;10447570;28;20981;-54
2022/08/07 22:28:40;;;;;;;4.72;1.15;;;;;;;;;;10448285;28;20086;-54
2022/08/07 22:33:46;;;;;;;2.60;1.20;;;;;;;;;;10410402;28;20064;-57
2022/08/07 22:39:01;;;;;;;1.77;1.20;;;;;;;;;;10444462;28;20041;-55
2022/08/07 22:44:08;;;;;;;1.75;1.20;;;;;;;;;;10446757;28;20037;-55
2022/08/07 22:49:47;;;;;;;3.20;1.30;;;;;;;;;;10446686;28;20064;-56
2022/08/07 22:55:17;;;;;;;1.73;1.23;;;;;;;;;;10447398;28;20231;-55
2022/08/07 23:00:35;;;;;;;3.35;1.27;;;;;;;;;;10449281;28;20388;-55
2022/08/07 23:06:06;;;;;;;3.08;1.13;;;;;;;;;;10442364;28;20088;-55
2022/08/07 23:12:05;;;;;;;1.17;1.00;;;;;;;;;;10456003;28;20031;-54
2022/08/07 23:17:34;;;;;;;2.13;1.33;;;;;;;;;;10432658;28;20040;-56
2022/08/07 23:23:06;;;;;;;1.67;0.95;;;;;;;;;;10454063;28;20033;-56
2022/08/07 23:28:57;;;;;;;2.20;1.10;;;;;;;;;;10455355;28;20025;-54
2022/08/07 23:34:37;;;;;;;1.40;1.15;;;;;;;;;;10453491;28;20105;-55
2022/08/07 23:40:16;;;;;;;1.75;1.20;;;;;;;;;;10453478;28;20029;-56
2022/08/07 23:45:23;;;;;;;2.35;0.88;;;;;;;;;;10452748;28;20901;-55
2022/08/07 23:50:45;;;;;;;0.90;0.90;;;;;;;;;;10453615;28;20071;-56
2022/08/07 23:56:07;;;;;;;1.42;0.90;;;;;;;;;;10453096;28;20056;-57
